sensor_id;sensor_type;location;lat;lon;timestamp;P1;durP1;ratioP1;P2;durP2;ratioP2
8716;SDS011;4395;48.554;8.820;2023-04-01T00:00:59;2.08;;;0.90;;
8716;SDS011;4395;48.554;8.820;2023-04-01T00:03:03;1.83;;;0.77;;
8716;SDS011;4395;48.554;8.820;2023-04-01T00:05:07;2.92;;;1.13;;
8716;SDS011;4395;48.554;8.820;2023-04-01T00:07:11;3.03;;;1.70;;
8716;SDS011;4395;48.554;8.820;2023-04-01T00:09:14;4.10;;;1.25;;
8716;SDS011;4395;48.554;8.820;2023-04-01T00:11:18;5.45;;;1.20;;
8716;SDS011;4395;48.554;8.820;2023-04-01T00:13:22;3.83;;;1.90;;
8716;SDS011;4395;48.554;8.820;2023-04-01T00:15:26;2.20;;;0.90;;
8716;SDS011;4395;48.554;8.820;2023-04-01T00:17:29;3.97;;;1.02;;
8716;SDS011;4395;48.554;8.820;2023-04-01T00:19:32;1.42;;;0.85;;
8716;SDS011;4395;48.554;8.820;2023-04-01T00:21:35;1.95;;;0.82;;
8716;SDS011;4395;48.554;8.820;2023-04-01T00:23:38;1.80;;;0.82;;
8716;SDS011;4395;48.554;8.820;2023-04-01T00:25:41;4.10;;;1.05;;
8716;SDS011;4395;48.554;8.820;2023-04-01T00:27:45;2.38;;;1.67;;
8716;SDS011;4395;48.554;8.820;2023-04-01T00:29:48;4.35;;;1.55;;
8716;SDS011;4395;48.554;8.820;2023-04-01T00:31:51;8.98;;;4.57;;
8716;SDS011;4395;48.554;8.820;2023-04-01T00:33:54;5.38;;;2.70;;
8716;SDS011;4395;48.554;8.820;2023-04-01T00:36:04;2.13;;;1.73;;
8716;SDS011;4395;48.554;8.820;2023-04-01T00:38:09;3.88;;;2.85;;
8716;SDS011;4395;48.554;8.820;2023-04-01T00:40:21;3.92;;;2.05;;
8716;SDS011;4395;48.554;8.820;2023-04-01T00:42:26;2.70;;;1.20;;
8716;SDS011;4395;48.554;8.820;2023-04-01T00:44:31;2.72;;;1.13;;
8716;SDS011;4395;48.554;8.820;2023-04-01T00:46:36;3.55;;;1.10;;
8716;SDS011;4395;48.554;8.820;2023-04-01T00:48:39;2.08;;;1.10;;
8716;SDS011;4395;48.554;8.820;2023-04-01T00:50:46;3.45;;;2.17;;
8716;SDS011;4395;48.554;8.820;2023-04-01T00:52:52;4.90;;;1.65;;
8716;SDS011;4395;48.554;8.820;2023-04-01T00:54:55;5.95;;;2.42;;
8716;SDS011;4395;48.554;8.820;2023-04-01T00:57:03;4.45;;;1.80;;
8716;SDS011;4395;48.554;8.820;2023-04-01T00:59:10;3.72;;;1.80;;
8716;SDS011;4395;48.554;8.820;2023-04-01T01:01:18;4.55;;;3.22;;
8716;SDS011;4395;48.554;8.820;2023-04-01T01:03:22;6.40;;;3.40;;
8716;SDS011;4395;48.554;8.820;2023-04-01T01:05:29;3.47;;;1.40;;
8716;SDS011;4395;48.554;8.820;2023-04-01T01:07:52;4.32;;;2.08;;
8716;SDS011;4395;48.554;8.820;2023-04-01T01:10:07;1.10;;;0.80;;
8716;SDS011;4395;48.554;8.820;2023-04-01T01:12:14;3.78;;;0.98;;
8716;SDS011;4395;48.554;8.820;2023-04-01T01:14:25;2.15;;;1.50;;
8716;SDS011;4395;48.554;8.820;2023-04-01T01:16:40;3.53;;;1.33;;
8716;SDS011;4395;48.554;8.820;2023-04-01T01:18:47;2.05;;;1.33;;
8716;SDS011;4395;48.554;8.820;2023-04-01T01:21:06;2.63;;;0.95;;
8716;SDS011;4395;48.554;8.820;2023-04-01T01:23:40;1.42;;;0.52;;
8716;SDS011;4395;48.554;8.820;2023-04-01T01:26:05;2.22;;;0.93;;
8716;SDS011;4395;48.554;8.820;2023-04-01T01:28:29;1.38;;;0.70;;
8716;SDS011;4395;48.554;8.820;2023-04-01T01:30:46;0.88;;;0.60;;
8716;SDS011;4395;48.554;8.820;2023-04-01T01:35:43;1.30;;;0.63;;
8716;SDS011;4395;48.554;8.820;2023-04-01T01:37:54;0.40;;;0.40;;
8716;SDS011;4395;48.554;8.820;2023-04-01T01:40:00;1.08;;;0.30;;
8716;SDS011;4395;48.554;8.820;2023-04-01T01:42:08;1.98;;;0.77;;
8716;SDS011;4395;48.554;8.820;2023-04-01T01:44:15;2.25;;;0.55;;
8716;SDS011;4395;48.554;8.820;2023-04-01T01:46:20;1.27;;;0.40;;
8716;SDS011;4395;48.554;8.820;2023-04-01T01:48:26;0.38;;;0.30;;
8716;SDS011;4395;48.554;8.820;2023-04-01T01:50:31;1.15;;;0.40;;
8716;SDS011;4395;48.554;8.820;2023-04-01T01:52:38;0.25;;;0.25;;
8716;SDS011;4395;48.554;8.820;2023-04-01T01:54:46;0.40;;;0.25;;
8716;SDS011;4395;48.554;8.820;2023-04-01T01:56:51;1.42;;;0.40;;
8716;SDS011;4395;48.554;8.820;2023-04-01T01:59:00;0.40;;;0.38;;
8716;SDS011;4395;48.554;8.820;2023-04-01T02:01:08;0.73;;;0.30;;
8716;SDS011;4395;48.554;8.820;2023-04-01T02:03:16;1.05;;;0.30;;
8716;SDS011;4395;48.554;8.820;2023-04-01T02:05:22;0.40;;;0.20;;
8716;SDS011;4395;48.554;8.820;2023-04-01T02:07:34;0.17;;;0.17;;
8716;SDS011;4395;48.554;8.820;2023-04-01T02:09:40;0.20;;;0.20;;
8716;SDS011;4395;48.554;8.820;2023-04-01T02:11:45;0.30;;;0.28;;
8716;SDS011;4395;48.554;8.820;2023-04-01T02:13:52;1.15;;;0.47;;
8716;SDS011;4395;48.554;8.820;2023-04-01T02:15:59;0.75;;;0.38;;
8716;SDS011;4395;48.554;8.820;2023-04-01T02:18:06;2.30;;;0.60;;
8716;SDS011;4395;48.554;8.820;2023-04-01T02:20:11;0.30;;;0.30;;
8716;SDS011;4395;48.554;8.820;2023-04-01T02:22:17;0.65;;;0.30;;
8716;SDS011;4395;48.554;8.820;2023-04-01T02:24:24;0.38;;;0.28;;
8716;SDS011;4395;48.554;8.820;2023-04-01T02:26:31;0.17;;;0.10;;
8716;SDS011;4395;48.554;8.820;2023-04-01T02:28:34;1.00;;;0.25;;
8716;SDS011;4395;48.554;8.820;2023-04-01T02:30:41;0.85;;;0.20;;
8716;SDS011;4395;48.554;8.820;2023-04-01T02:32:46;0.60;;;0.20;;
8716;SDS011;4395;48.554;8.820;2023-04-01T02:34:50;1.80;;;0.40;;
8716;SDS011;4395;48.554;8.820;2023-04-01T02:36:54;1.35;;;0.30;;
8716;SDS011;4395;48.554;8.820;2023-04-01T02:38:59;0.40;;;0.30;;
8716;SDS011;4395;48.554;8.820;2023-04-01T02:41:03;0.70;;;0.20;;
8716;SDS011;4395;48.554;8.820;2023-04-01T02:43:08;1.33;;;0.40;;
8716;SDS011;4395;48.554;8.820;2023-04-01T02:45:12;0.63;;;0.30;;
8716;SDS011;4395;48.554;8.820;2023-04-01T02:47:16;0.30;;;0.20;;
8716;SDS011;4395;48.554;8.820;2023-04-01T02:49:18;1.70;;;0.30;;
8716;SDS011;4395;48.554;8.820;2023-04-01T02:51:21;0.22;;;0.20;;
8716;SDS011;4395;48.554;8.820;2023-04-01T02:53:24;1.25;;;0.25;;
8716;SDS011;4395;48.554;8.820;2023-04-01T02:55:27;2.92;;;0.45;;
8716;SDS011;4395;48.554;8.820;2023-04-01T02:57:31;0.63;;;0.30;;
8716;SDS011;4395;48.554;8.820;2023-04-01T02:59:36;0.95;;;0.40;;
8716;SDS011;4395;48.554;8.820;2023-04-01T03:01:38;1.35;;;0.40;;
8716;SDS011;4395;48.554;8.820;2023-04-01T03:03:41;0.40;;;0.40;;
8716;SDS011;4395;48.554;8.820;2023-04-01T03:05:44;1.50;;;0.50;;
8716;SDS011;4395;48.554;8.820;2023-04-01T03:07:47;1.65;;;0.50;;
8716;SDS011;4395;48.554;8.820;2023-04-01T03:09:50;1.27;;;0.35;;
8716;SDS011;4395;48.554;8.820;2023-04-01T03:11:56;1.85;;;0.20;;
8716;SDS011;4395;48.554;8.820;2023-04-01T03:13:59;0.73;;;0.13;;
8716;SDS011;4395;48.554;8.820;2023-04-01T03:16:03;3.38;;;1.10;;
8716;SDS011;4395;48.554;8.820;2023-04-01T03:18:06;2.35;;;1.23;;
8716;SDS011;4395;48.554;8.820;2023-04-01T03:20:09;1.67;;;0.77;;
8716;SDS011;4395;48.554;8.820;2023-04-01T03:22:13;2.40;;;0.80;;
8716;SDS011;4395;48.554;8.820;2023-04-01T03:24:17;1.73;;;0.40;;
8716;SDS011;4395;48.554;8.820;2023-04-01T03:26:21;1.48;;;0.30;;
8716;SDS011;4395;48.554;8.820;2023-04-01T03:28:24;1.55;;;0.20;;
8716;SDS011;4395;48.554;8.820;2023-04-01T03:30:27;0.32;;;0.32;;
8716;SDS011;4395;48.554;8.820;2023-04-01T03:32:33;2.33;;;0.50;;
8716;SDS011;4395;48.554;8.820;2023-04-01T03:34:36;0.57;;;0.22;;
8716;SDS011;4395;48.554;8.820;2023-04-01T03:36:39;0.57;;;0.20;;
8716;SDS011;4395;48.554;8.820;2023-04-01T03:38:42;0.30;;;0.30;;
8716;SDS011;4395;48.554;8.820;2023-04-01T03:40:48;0.73;;;0.30;;
8716;SDS011;4395;48.554;8.820;2023-04-01T03:42:51;0.65;;;0.35;;
8716;SDS011;4395;48.554;8.820;2023-04-01T03:44:55;1.45;;;0.50;;
8716;SDS011;4395;48.554;8.820;2023-04-01T03:46:58;0.50;;;0.20;;
8716;SDS011;4395;48.554;8.820;2023-04-01T03:49:05;1.27;;;0.45;;
8716;SDS011;4395;48.554;8.820;2023-04-01T03:51:12;0.60;;;0.20;;
8716;SDS011;4395;48.554;8.820;2023-04-01T03:53:15;0.52;;;0.35;;
8716;SDS011;4395;48.554;8.820;2023-04-01T03:55:20;1.58;;;0.52;;
8716;SDS011;4395;48.554;8.820;2023-04-01T03:57:23;0.63;;;0.20;;
8716;SDS011;4395;48.554;8.820;2023-04-01T03:59:26;0.40;;;0.30;;
8716;SDS011;4395;48.554;8.820;2023-04-01T04:01:29;0.60;;;0.28;;
8716;SDS011;4395;48.554;8.820;2023-04-01T04:03:33;1.20;;;0.70;;
8716;SDS011;4395;48.554;8.820;2023-04-01T04:05:37;0.75;;;0.40;;
8716;SDS011;4395;48.554;8.820;2023-04-01T04:07:40;2.42;;;0.52;;
8716;SDS011;4395;48.554;8.820;2023-04-01T04:09:43;1.80;;;0.60;;
8716;SDS011;4395;48.554;8.820;2023-04-01T04:11:45;1.75;;;0.50;;
8716;SDS011;4395;48.554;8.820;2023-04-01T04:13:48;1.20;;;0.60;;
8716;SDS011;4395;48.554;8.820;2023-04-01T04:15:51;1.50;;;0.98;;
8716;SDS011;4395;48.554;8.820;2023-04-01T04:17:54;3.10;;;1.63;;
8716;SDS011;4395;48.554;8.820;2023-04-01T04:19:58;3.70;;;2.35;;
8716;SDS011;4395;48.554;8.820;2023-04-01T04:22:02;1.98;;;0.93;;
8716;SDS011;4395;48.554;8.820;2023-04-01T04:24:05;2.85;;;0.90;;
8716;SDS011;4395;48.554;8.820;2023-04-01T04:26:27;1.40;;;0.52;;
8716;SDS011;4395;48.554;8.820;2023-04-01T04:28:33;2.45;;;0.70;;
8716;SDS011;4395;48.554;8.820;2023-04-01T04:30:36;2.63;;;0.65;;
8716;SDS011;4395;48.554;8.820;2023-04-01T04:32:39;1.38;;;0.55;;
8716;SDS011;4395;48.554;8.820;2023-04-01T04:34:44;4.03;;;0.95;;
8716;SDS011;4395;48.554;8.820;2023-04-01T04:36:47;2.65;;;0.73;;
8716;SDS011;4395;48.554;8.820;2023-04-01T04:38:52;1.63;;;0.45;;
8716;SDS011;4395;48.554;8.820;2023-04-01T04:40:56;2.15;;;0.60;;
8716;SDS011;4395;48.554;8.820;2023-04-01T04:42:59;2.67;;;0.93;;
8716;SDS011;4395;48.554;8.820;2023-04-01T04:45:02;3.05;;;1.10;;
8716;SDS011;4395;48.554;8.820;2023-04-01T04:47:06;3.38;;;1.02;;
8716;SDS011;4395;48.554;8.820;2023-04-01T04:49:10;3.20;;;0.63;;
8716;SDS011;4395;48.554;8.820;2023-04-01T04:51:13;2.38;;;0.95;;
8716;SDS011;4395;48.554;8.820;2023-04-01T04:53:18;2.78;;;0.90;;
8716;SDS011;4395;48.554;8.820;2023-04-01T04:55:23;1.70;;;0.88;;
8716;SDS011;4395;48.554;8.820;2023-04-01T04:57:45;3.17;;;0.60;;
8716;SDS011;4395;48.554;8.820;2023-04-01T04:59:48;1.35;;;0.60;;
8716;SDS011;4395;48.554;8.820;2023-04-01T05:02:14;1.05;;;0.50;;
8716;SDS011;4395;48.554;8.820;2023-04-01T05:04:16;2.05;;;0.70;;
8716;SDS011;4395;48.554;8.820;2023-04-01T05:06:19;1.15;;;0.40;;
8716;SDS011;4395;48.554;8.820;2023-04-01T05:08:24;3.28;;;1.08;;
8716;SDS011;4395;48.554;8.820;2023-04-01T05:10:28;2.00;;;0.80;;
8716;SDS011;4395;48.554;8.820;2023-04-01T05:12:31;1.75;;;0.65;;
8716;SDS011;4395;48.554;8.820;2023-04-01T05:14:37;0.80;;;0.47;;
8716;SDS011;4395;48.554;8.820;2023-04-01T05:16:43;2.38;;;0.70;;
8716;SDS011;4395;48.554;8.820;2023-04-01T05:18:47;2.50;;;0.73;;
8716;SDS011;4395;48.554;8.820;2023-04-01T05:20:50;1.05;;;0.30;;
8716;SDS011;4395;48.554;8.820;2023-04-01T05:22:55;2.33;;;0.90;;
8716;SDS011;4395;48.554;8.820;2023-04-01T05:24:58;1.67;;;0.50;;
8716;SDS011;4395;48.554;8.820;2023-04-01T05:27:03;1.10;;;0.60;;
8716;SDS011;4395;48.554;8.820;2023-04-01T05:29:08;2.15;;;0.70;;
8716;SDS011;4395;48.554;8.820;2023-04-01T05:31:13;2.47;;;0.80;;
8716;SDS011;4395;48.554;8.820;2023-04-01T05:33:18;2.15;;;0.73;;
8716;SDS011;4395;48.554;8.820;2023-04-01T05:35:22;2.25;;;0.70;;
8716;SDS011;4395;48.554;8.820;2023-04-01T05:37:25;2.22;;;0.85;;
8716;SDS011;4395;48.554;8.820;2023-04-01T05:39:28;1.73;;;0.55;;
8716;SDS011;4395;48.554;8.820;2023-04-01T05:41:33;2.20;;;0.70;;
8716;SDS011;4395;48.554;8.820;2023-04-01T05:43:39;2.95;;;0.82;;
8716;SDS011;4395;48.554;8.820;2023-04-01T05:46:02;2.33;;;0.65;;
8716;SDS011;4395;48.554;8.820;2023-04-01T05:48:22;3.58;;;0.85;;
8716;SDS011;4395;48.554;8.820;2023-04-01T05:50:25;2.88;;;1.00;;
8716;SDS011;4395;48.554;8.820;2023-04-01T05:52:28;1.25;;;0.50;;
8716;SDS011;4395;48.554;8.820;2023-04-01T05:54:31;2.03;;;0.70;;
8716;SDS011;4395;48.554;8.820;2023-04-01T05:56:34;1.95;;;0.57;;
8716;SDS011;4395;48.554;8.820;2023-04-01T05:58:38;1.60;;;0.55;;
8716;SDS011;4395;48.554;8.820;2023-04-01T06:00:42;1.83;;;0.40;;
8716;SDS011;4395;48.554;8.820;2023-04-01T06:02:50;1.00;;;0.30;;
8716;SDS011;4395;48.554;8.820;2023-04-01T06:04:54;1.60;;;0.60;;
8716;SDS011;4395;48.554;8.820;2023-04-01T06:07:05;1.95;;;0.40;;
8716;SDS011;4395;48.554;8.820;2023-04-01T06:09:14;1.15;;;0.43;;
8716;SDS011;4395;48.554;8.820;2023-04-01T06:11:29;1.02;;;0.40;;
8716;SDS011;4395;48.554;8.820;2023-04-01T06:13:45;2.63;;;0.50;;
8716;SDS011;4395;48.554;8.820;2023-04-01T06:16:10;2.00;;;0.98;;
8716;SDS011;4395;48.554;8.820;2023-04-01T06:18:30;2.97;;;0.70;;
8716;SDS011;4395;48.554;8.820;2023-04-01T06:20:46;2.28;;;0.73;;
8716;SDS011;4395;48.554;8.820;2023-04-01T06:23:06;2.47;;;0.80;;
8716;SDS011;4395;48.554;8.820;2023-04-01T06:25:18;2.03;;;0.90;;
8716;SDS011;4395;48.554;8.820;2023-04-01T06:27:34;4.43;;;1.00;;
8716;SDS011;4395;48.554;8.820;2023-04-01T06:29:56;1.52;;;0.60;;
8716;SDS011;4395;48.554;8.820;2023-04-01T06:32:15;1.33;;;0.60;;
8716;SDS011;4395;48.554;8.820;2023-04-01T06:34:38;2.50;;;0.73;;
8716;SDS011;4395;48.554;8.820;2023-04-01T06:37:05;1.30;;;0.73;;
8716;SDS011;4395;48.554;8.820;2023-04-01T06:39:34;1.80;;;0.60;;
8716;SDS011;4395;48.554;8.820;2023-04-01T06:44:23;1.02;;;0.30;;
8716;SDS011;4395;48.554;8.820;2023-04-01T06:46:55;1.58;;;0.60;;
8716;SDS011;4395;48.554;8.820;2023-04-01T06:49:34;2.10;;;0.77;;
8716;SDS011;4395;48.554;8.820;2023-04-01T06:52:06;3.35;;;0.90;;
8716;SDS011;4395;48.554;8.820;2023-04-01T06:54:38;2.90;;;1.27;;
8716;SDS011;4395;48.554;8.820;2023-04-01T06:57:05;2.22;;;0.75;;
8716;SDS011;4395;48.554;8.820;2023-04-01T06:59:22;1.60;;;0.70;;
8716;SDS011;4395;48.554;8.820;2023-04-01T07:01:31;1.85;;;0.63;;
8716;SDS011;4395;48.554;8.820;2023-04-01T07:03:39;1.35;;;0.70;;
8716;SDS011;4395;48.554;8.820;2023-04-01T07:05:46;1.88;;;0.80;;
8716;SDS011;4395;48.554;8.820;2023-04-01T07:07:50;2.70;;;0.65;;
8716;SDS011;4395;48.554;8.820;2023-04-01T07:09:57;3.10;;;1.60;;
8716;SDS011;4395;48.554;8.820;2023-04-01T07:12:06;2.92;;;1.27;;
8716;SDS011;4395;48.554;8.820;2023-04-01T07:14:47;4.35;;;2.78;;
8716;SDS011;4395;48.554;8.820;2023-04-01T07:16:54;2.38;;;0.82;;
8716;SDS011;4395;48.554;8.820;2023-04-01T07:19:03;4.40;;;1.20;;
8716;SDS011;4395;48.554;8.820;2023-04-01T07:21:26;2.60;;;0.77;;
8716;SDS011;4395;48.554;8.820;2023-04-01T07:23:36;2.88;;;1.13;;
8716;SDS011;4395;48.554;8.820;2023-04-01T07:26:14;2.53;;;1.10;;
8716;SDS011;4395;48.554;8.820;2023-04-01T07:28:38;2.20;;;0.73;;
8716;SDS011;4395;48.554;8.820;2023-04-01T07:31:01;2.60;;;1.02;;
8716;SDS011;4395;48.554;8.820;2023-04-01T07:33:11;2.25;;;0.98;;
8716;SDS011;4395;48.554;8.820;2023-04-01T07:35:23;2.15;;;0.90;;
8716;SDS011;4395;48.554;8.820;2023-04-01T07:37:34;2.42;;;1.60;;
8716;SDS011;4395;48.554;8.820;2023-04-01T07:39:46;2.42;;;1.70;;
8716;SDS011;4395;48.554;8.820;2023-04-01T07:42:05;3.67;;;1.90;;
8716;SDS011;4395;48.554;8.820;2023-04-01T07:44:20;2.55;;;1.90;;
8716;SDS011;4395;48.554;8.820;2023-04-01T07:46:40;2.40;;;1.60;;
8716;SDS011;4395;48.554;8.820;2023-04-01T07:48:55;2.63;;;1.10;;
8716;SDS011;4395;48.554;8.820;2023-04-01T07:51:07;3.10;;;1.20;;
8716;SDS011;4395;48.554;8.820;2023-04-01T07:53:17;1.75;;;1.13;;
8716;SDS011;4395;48.554;8.820;2023-04-01T07:55:31;1.75;;;0.90;;
8716;SDS011;4395;48.554;8.820;2023-04-01T07:57:41;2.47;;;1.10;;
8716;SDS011;4395;48.554;8.820;2023-04-01T07:59:53;2.08;;;0.90;;
8716;SDS011;4395;48.554;8.820;2023-04-01T08:02:16;1.38;;;0.63;;
8716;SDS011;4395;48.554;8.820;2023-04-01T08:04:35;1.73;;;0.60;;
8716;SDS011;4395;48.554;8.820;2023-04-01T08:06:52;2.80;;;0.90;;
8716;SDS011;4395;48.554;8.820;2023-04-01T08:09:03;0.65;;;0.43;;
8716;SDS011;4395;48.554;8.820;2023-04-01T08:11:35;1.73;;;0.60;;
8716;SDS011;4395;48.554;8.820;2023-04-01T08:14:07;3.75;;;1.08;;
8716;SDS011;4395;48.554;8.820;2023-04-01T08:16:49;1.10;;;0.60;;
8716;SDS011;4395;48.554;8.820;2023-04-01T08:19:09;2.67;;;0.60;;
8716;SDS011;4395;48.554;8.820;2023-04-01T08:21:27;2.00;;;0.65;;
8716;SDS011;4395;48.554;8.820;2023-04-01T08:23:38;0.95;;;0.40;;
8716;SDS011;4395;48.554;8.820;2023-04-01T08:25:49;2.90;;;0.65;;
8716;SDS011;4395;48.554;8.820;2023-04-01T08:27:57;1.10;;;0.77;;
8716;SDS011;4395;48.554;8.820;2023-04-01T08:30:09;2.33;;;0.88;;
8716;SDS011;4395;48.554;8.820;2023-04-01T08:32:20;2.00;;;0.77;;
8716;SDS011;4395;48.554;8.820;2023-04-01T08:34:30;1.52;;;0.60;;
8716;SDS011;4395;48.554;8.820;2023-04-01T08:36:37;3.53;;;1.50;;
8716;SDS011;4395;48.554;8.820;2023-04-01T08:38:51;1.33;;;0.90;;
8716;SDS011;4395;48.554;8.820;2023-04-01T08:40:59;2.13;;;1.85;;
8716;SDS011;4395;48.554;8.820;2023-04-01T08:43:54;1.92;;;0.50;;
8716;SDS011;4395;48.554;8.820;2023-04-01T08:46:19;0.95;;;0.60;;
8716;SDS011;4395;48.554;8.820;2023-04-01T08:48:53;0.98;;;0.70;;
8716;SDS011;4395;48.554;8.820;2023-04-01T08:53:53;1.83;;;1.60;;
8716;SDS011;4395;48.554;8.820;2023-04-01T08:56:10;2.58;;;1.20;;
8716;SDS011;4395;48.554;8.820;2023-04-01T09:01:05;1.98;;;0.73;;
8716;SDS011;4395;48.554;8.820;2023-04-01T09:03:31;1.60;;;0.60;;
8716;SDS011;4395;48.554;8.820;2023-04-01T09:05:47;0.63;;;0.45;;
8716;SDS011;4395;48.554;8.820;2023-04-01T09:08:18;0.77;;;0.68;;
8716;SDS011;4395;48.554;8.820;2023-04-01T09:13:35;3.10;;;0.70;;
8716;SDS011;4395;48.554;8.820;2023-04-01T09:15:59;0.88;;;0.65;;
8716;SDS011;4395;48.554;8.820;2023-04-01T09:20:55;2.15;;;1.23;;
8716;SDS011;4395;48.554;8.820;2023-04-01T09:23:24;0.47;;;0.47;;
8716;SDS011;4395;48.554;8.820;2023-04-01T09:25:45;1.70;;;0.93;;
8716;SDS011;4395;48.554;8.820;2023-04-01T09:27:59;1.35;;;0.68;;
8716;SDS011;4395;48.554;8.820;2023-04-01T09:30:17;0.80;;;0.80;;
8716;SDS011;4395;48.554;8.820;2023-04-01T09:32:40;0.90;;;0.70;;
8716;SDS011;4395;48.554;8.820;2023-04-01T09:35:03;0.70;;;0.40;;
8716;SDS011;4395;48.554;8.820;2023-04-01T09:37:26;0.38;;;0.38;;
8716;SDS011;4395;48.554;8.820;2023-04-01T09:39:45;0.75;;;0.55;;
8716;SDS011;4395;48.554;8.820;2023-04-01T09:42:16;0.43;;;0.40;;
8716;SDS011;4395;48.554;8.820;2023-04-01T09:44:51;0.57;;;0.40;;
8716;SDS011;4395;48.554;8.820;2023-04-01T09:47:05;1.90;;;1.52;;
8716;SDS011;4395;48.554;8.820;2023-04-01T09:51:59;0.77;;;0.68;;
8716;SDS011;4395;48.554;8.820;2023-04-01T09:54:19;1.23;;;0.70;;
8716;SDS011;4395;48.554;8.820;2023-04-01T10:05:18;0.45;;;0.40;;
8716;SDS011;4395;48.554;8.820;2023-04-01T10:07:53;5.18;;;1.25;;
8716;SDS011;4395;48.554;8.820;2023-04-01T10:10:30;1.38;;;1.20;;
8716;SDS011;4395;48.554;8.820;2023-04-01T10:12:51;1.65;;;1.25;;
8716;SDS011;4395;48.554;8.820;2023-04-01T10:15:21;2.05;;;1.10;;
8716;SDS011;4395;48.554;8.820;2023-04-01T10:20:46;0.35;;;0.35;;
8716;SDS011;4395;48.554;8.820;2023-04-01T10:23:13;0.35;;;0.35;;
8716;SDS011;4395;48.554;8.820;2023-04-01T10:28:37;0.77;;;0.28;;
8716;SDS011;4395;48.554;8.820;2023-04-01T10:31:28;0.20;;;0.20;;
8716;SDS011;4395;48.554;8.820;2023-04-01T10:36:48;0.20;;;0.20;;
8716;SDS011;4395;48.554;8.820;2023-04-01T10:39:08;0.63;;;0.40;;
8716;SDS011;4395;48.554;8.820;2023-04-01T10:42:01;0.63;;;0.32;;
8716;SDS011;4395;48.554;8.820;2023-04-01T10:50:24;0.55;;;0.20;;
8716;SDS011;4395;48.554;8.820;2023-04-01T10:52:45;0.38;;;0.35;;
8716;SDS011;4395;48.554;8.820;2023-04-01T10:56:03;0.80;;;0.70;;
8716;SDS011;4395;48.554;8.820;2023-04-01T10:59:01;2.00;;;1.67;;
8716;SDS011;4395;48.554;8.820;2023-04-01T11:01:54;1.92;;;1.77;;
8716;SDS011;4395;48.554;8.820;2023-04-01T11:05:19;1.63;;;0.30;;
8716;SDS011;4395;48.554;8.820;2023-04-01T11:08:02;0.73;;;0.43;;
8716;SDS011;4395;48.554;8.820;2023-04-01T11:10:45;0.40;;;0.20;;
8716;SDS011;4395;48.554;8.820;2023-04-01T11:13:34;0.20;;;0.20;;
8716;SDS011;4395;48.554;8.820;2023-04-01T11:16:13;0.32;;;0.32;;
8716;SDS011;4395;48.554;8.820;2023-04-01T11:18:55;0.98;;;0.30;;
8716;SDS011;4395;48.554;8.820;2023-04-01T11:21:22;0.57;;;0.22;;
8716;SDS011;4395;48.554;8.820;2023-04-01T11:24:21;0.38;;;0.32;;
8716;SDS011;4395;48.554;8.820;2023-04-01T11:27:12;0.30;;;0.20;;
8716;SDS011;4395;48.554;8.820;2023-04-01T11:29:55;0.40;;;0.40;;
8716;SDS011;4395;48.554;8.820;2023-04-01T11:32:29;0.60;;;0.40;;
8716;SDS011;4395;48.554;8.820;2023-04-01T11:34:46;0.40;;;0.30;;
8716;SDS011;4395;48.554;8.820;2023-04-01T11:37:02;1.02;;;1.00;;
8716;SDS011;4395;48.554;8.820;2023-04-01T11:39:22;1.13;;;1.02;;
8716;SDS011;4395;48.554;8.820;2023-04-01T11:41:53;1.95;;;1.77;;
8716;SDS011;4395;48.554;8.820;2023-04-01T11:44:37;0.60;;;0.60;;
8716;SDS011;4395;48.554;8.820;2023-04-01T11:47:00;2.20;;;2.00;;
8716;SDS011;4395;48.554;8.820;2023-04-01T11:49:17;1.95;;;1.50;;
8716;SDS011;4395;48.554;8.820;2023-04-01T11:51:59;1.33;;;0.93;;
8716;SDS011;4395;48.554;8.820;2023-04-01T11:54:23;1.92;;;1.75;;
8716;SDS011;4395;48.554;8.820;2023-04-01T11:56:45;3.00;;;2.50;;
8716;SDS011;4395;48.554;8.820;2023-04-01T12:01:43;0.40;;;0.40;;
8716;SDS011;4395;48.554;8.820;2023-04-01T12:03:54;0.63;;;0.60;;
8716;SDS011;4395;48.554;8.820;2023-04-01T12:06:11;1.75;;;0.40;;
8716;SDS011;4395;48.554;8.820;2023-04-01T12:08:24;0.40;;;0.40;;
8716;SDS011;4395;48.554;8.820;2023-04-01T12:10:38;0.50;;;0.50;;
8716;SDS011;4395;48.554;8.820;2023-04-01T12:12:48;0.52;;;0.47;;
8716;SDS011;4395;48.554;8.820;2023-04-01T12:15:11;0.40;;;0.30;;
8716;SDS011;4395;48.554;8.820;2023-04-01T12:17:26;0.10;;;0.10;;
8716;SDS011;4395;48.554;8.820;2023-04-01T12:19:39;0.55;;;0.20;;
8716;SDS011;4395;48.554;8.820;2023-04-01T12:21:52;0.50;;;0.50;;
8716;SDS011;4395;48.554;8.820;2023-04-01T12:24:22;0.22;;;0.20;;
8716;SDS011;4395;48.554;8.820;2023-04-01T12:26:39;0.32;;;0.10;;
8716;SDS011;4395;48.554;8.820;2023-04-01T12:28:54;0.10;;;0.10;;
8716;SDS011;4395;48.554;8.820;2023-04-01T12:31:14;0.10;;;0.10;;
8716;SDS011;4395;48.554;8.820;2023-04-01T12:33:40;0.20;;;0.15;;
8716;SDS011;4395;48.554;8.820;2023-04-01T12:36:01;0.55;;;0.40;;
8716;SDS011;4395;48.554;8.820;2023-04-01T12:38:19;1.20;;;0.40;;
8716;SDS011;4395;48.554;8.820;2023-04-01T12:40:35;2.10;;;0.30;;
8716;SDS011;4395;48.554;8.820;2023-04-01T12:42:51;0.20;;;0.20;;
8716;SDS011;4395;48.554;8.820;2023-04-01T12:45:03;0.10;;;0.10;;
8716;SDS011;4395;48.554;8.820;2023-04-01T12:50:11;0.10;;;0.10;;
8716;SDS011;4395;48.554;8.820;2023-04-01T12:52:37;0.10;;;0.10;;
8716;SDS011;4395;48.554;8.820;2023-04-01T12:57:51;0.40;;;0.28;;
8716;SDS011;4395;48.554;8.820;2023-04-01T13:00:23;0.60;;;0.60;;
8716;SDS011;4395;48.554;8.820;2023-04-01T13:02:37;0.50;;;0.50;;
8716;SDS011;4395;48.554;8.820;2023-04-01T13:04:55;0.20;;;0.20;;
8716;SDS011;4395;48.554;8.820;2023-04-01T13:07:22;0.50;;;0.20;;
8716;SDS011;4395;48.554;8.820;2023-04-01T13:09:40;0.88;;;0.88;;
8716;SDS011;4395;48.554;8.820;2023-04-01T13:11:57;0.90;;;0.70;;
8716;SDS011;4395;48.554;8.820;2023-04-01T13:14:25;1.67;;;1.00;;
8716;SDS011;4395;48.554;8.820;2023-04-01T13:16:41;0.17;;;0.13;;
8716;SDS011;4395;48.554;8.820;2023-04-01T13:18:52;0.17;;;0.17;;
8716;SDS011;4395;48.554;8.820;2023-04-01T13:21:03;0.77;;;0.77;;
8716;SDS011;4395;48.554;8.820;2023-04-01T13:23:17;1.40;;;0.60;;
8716;SDS011;4395;48.554;8.820;2023-04-01T13:25:31;0.50;;;0.50;;
8716;SDS011;4395;48.554;8.820;2023-04-01T13:27:42;0.20;;;0.20;;
8716;SDS011;4395;48.554;8.820;2023-04-01T13:29:58;0.55;;;0.30;;
8716;SDS011;4395;48.554;8.820;2023-04-01T13:32:18;0.57;;;0.38;;
8716;SDS011;4395;48.554;8.820;2023-04-01T13:34:47;1.10;;;0.35;;
8716;SDS011;4395;48.554;8.820;2023-04-01T13:37:10;0.43;;;0.43;;
8716;SDS011;4395;48.554;8.820;2023-04-01T13:39:27;0.43;;;0.40;;
8716;SDS011;4395;48.554;8.820;2023-04-01T13:41:50;0.35;;;0.32;;
8716;SDS011;4395;48.554;8.820;2023-04-01T13:44:06;0.32;;;0.20;;
8716;SDS011;4395;48.554;8.820;2023-04-01T13:46:22;0.20;;;0.20;;
8716;SDS011;4395;48.554;8.820;2023-04-01T13:51:25;1.27;;;0.57;;
8716;SDS011;4395;48.554;8.820;2023-04-01T13:56:15;0.50;;;0.45;;
8716;SDS011;4395;48.554;8.820;2023-04-01T13:58:30;0.65;;;0.40;;
8716;SDS011;4395;48.554;8.820;2023-04-01T14:00:56;1.08;;;0.68;;
8716;SDS011;4395;48.554;8.820;2023-04-01T14:05:55;0.45;;;0.45;;
8716;SDS011;4395;48.554;8.820;2023-04-01T14:08:07;0.75;;;0.60;;
8716;SDS011;4395;48.554;8.820;2023-04-01T14:10:20;1.25;;;0.40;;
8716;SDS011;4395;48.554;8.820;2023-04-01T14:12:29;0.35;;;0.30;;
8716;SDS011;4395;48.554;8.820;2023-04-01T14:14:36;0.90;;;0.43;;
8716;SDS011;4395;48.554;8.820;2023-04-01T14:16:55;0.50;;;0.13;;
8716;SDS011;4395;48.554;8.820;2023-04-01T14:19:11;0.40;;;0.40;;
8716;SDS011;4395;48.554;8.820;2023-04-01T14:21:37;1.48;;;0.30;;
8716;SDS011;4395;48.554;8.820;2023-04-01T14:26:22;0.35;;;0.30;;
8716;SDS011;4395;48.554;8.820;2023-04-01T14:28:43;0.60;;;0.60;;
8716;SDS011;4395;48.554;8.820;2023-04-01T14:33:31;0.93;;;0.40;;
8716;SDS011;4395;48.554;8.820;2023-04-01T14:35:46;0.40;;;0.40;;
8716;SDS011;4395;48.554;8.820;2023-04-01T14:38:04;0.32;;;0.20;;
8716;SDS011;4395;48.554;8.820;2023-04-01T14:40:19;0.47;;;0.28;;
8716;SDS011;4395;48.554;8.820;2023-04-01T14:45:02;0.73;;;0.50;;
8716;SDS011;4395;48.554;8.820;2023-04-01T14:47:34;0.20;;;0.20;;
8716;SDS011;4395;48.554;8.820;2023-04-01T14:49:49;0.80;;;0.30;;
8716;SDS011;4395;48.554;8.820;2023-04-01T14:51:54;0.28;;;0.20;;
8716;SDS011;4395;48.554;8.820;2023-04-01T14:54:02;0.65;;;0.65;;
8716;SDS011;4395;48.554;8.820;2023-04-01T14:56:08;7.60;;;4.18;;
8716;SDS011;4395;48.554;8.820;2023-04-01T14:58:11;2.42;;;1.80;;
8716;SDS011;4395;48.554;8.820;2023-04-01T15:00:16;1.00;;;0.50;;